Time;durP1;ratioP1;P1;durP2;ratioP2;P2;SDS_P1;SDS_P2;PMS_P1;PMS_P2;Temp;Humidity;BMP_temperature;BMP_pressure;BME280_temperature;BME280_humidity;BME280_pressure;Samples;Min_cycle;Max_cycle;Signal;HPM_P1;HPM_P2
2022/07/20 00:02:21;;;;;;;5.28;2.63;;;23.30;70.70;;;;;;5051826;28;20477;-77
2022/07/20 00:04:48;;;;;;;5.00;2.42;;;23.30;70.80;;;;;;5052377;28;20028;-78
2022/07/20 00:07:14;;;;;;;4.28;2.38;;;23.30;71.00;;;;;;5051711;28;20477;-79
2022/07/20 00:12:23;;;;;;;5.15;2.55;;;23.30;71.40;;;;;;5070861;28;20082;-81
2022/07/20 00:14:48;;;;;;;5.50;2.45;;;23.30;71.60;;;;;;5053739;28;20028;-77
2022/07/20 00:17:14;;;;;;;5.53;2.50;;;23.20;71.70;;;;;;5051699;28;20492;-79
2022/07/20 00:19:39;;;;;;;5.20;2.20;;;23.20;72.00;;;;;;5070462;28;20093;-79
2022/07/20 00:22:05;;;;;;;6.70;3.05;;;23.20;72.30;;;;;;5051510;28;20056;-78
2022/07/20 00:24:30;;;;;;;6.45;2.92;;;23.20;72.40;;;;;;5051820;28;20031;-78
2022/07/20 00:26:56;;;;;;;3.60;2.63;;;23.20;72.50;;;;;;5051315;28;20454;-79
2022/07/20 00:29:21;;;;;;;3.97;2.83;;;23.10;72.50;;;;;;5069893;28;20482;-77
2022/07/20 00:31:47;;;;;;;7.15;2.60;;;23.10;72.70;;;;;;5051574;28;20051;-77
2022/07/20 00:34:12;;;;;;;2.65;2.08;;;23.10;72.60;;;;;;5069989;28;20089;-79
2022/07/20 00:36:38;;;;;;;5.85;2.72;;;23.10;72.90;;;;;;5051931;28;20040;-78
2022/07/20 00:39:03;;;;;;;4.82;2.63;;;23.00;73.10;;;;;;5074438;28;20037;-76
2022/07/20 00:41:29;;;;;;;4.07;2.53;;;23.00;73.20;;;;;;5073105;28;20036;-77
2022/07/20 00:44:03;;;;;;;6.03;2.17;;;23.00;73.60;;;;;;5056092;28;20063;-80
2022/07/20 00:46:31;;;;;;;10.02;2.38;;;22.90;73.60;;;;;;5055158;28;20028;-78
2022/07/20 00:48:57;;;;;;;5.93;2.45;;;22.90;74.00;;;;;;5055975;28;20074;-78
2022/07/20 00:51:23;;;;;;;3.22;2.58;;;22.90;73.80;;;;;;5073041;28;20129;-80
2022/07/20 00:53:50;;;;;;;3.95;1.95;;;22.90;73.70;;;;;;5073417;28;20036;-77
2022/07/20 00:56:17;;;;;;;5.03;2.20;;;22.90;74.00;;;;;;5055024;28;20055;-80
2022/07/20 00:58:43;;;;;;;5.95;2.20;;;22.80;74.60;;;;;;5073530;28;20521;-78
2022/07/20 01:01:08;;;;;;;4.55;2.35;;;22.80;74.90;;;;;;5055000;28;20032;-76
2022/07/20 01:03:34;;;;;;;4.00;2.53;;;22.70;75.30;;;;;;5055215;28;20479;-77
2022/07/20 01:05:59;;;;;;;5.97;2.90;;;22.70;75.60;;;;;;5072750;28;20055;-79
2022/07/20 01:08:27;;;;;;;5.60;2.15;;;22.80;75.50;;;;;;5073527;28;20024;-77
2022/07/20 01:10:54;;;;;;;4.55;2.88;;;22.70;75.30;;;;;;5072995;28;20033;-76
2022/07/20 01:13:19;;;;;;;3.47;2.08;;;22.70;75.10;;;;;;5073454;28;20079;-78
2022/07/20 01:15:45;;;;;;;7.20;2.35;;;22.70;75.30;;;;;;5072454;28;20048;-78
2022/07/20 01:18:11;;;;;;;3.08;1.83;;;22.70;75.20;;;;;;5073446;28;20517;-77
2022/07/20 01:20:39;;;;;;;4.90;2.45;;;22.70;74.90;;;;;;5073344;28;20267;-78
2022/07/20 01:23:05;;;;;;;4.10;2.35;;;22.70;75.10;;;;;;5055122;28;20482;-79
2022/07/20 01:25:34;;;;;;;6.75;2.50;;;22.70;75.30;;;;;;5072224;28;20038;-80
2022/07/20 01:28:05;;;;;;;4.07;2.55;;;22.60;75.40;;;;;;5055131;28;20390;-80
2022/07/20 01:30:31;;;;;;;3.33;2.25;;;22.60;75.20;;;;;;5054975;28;20024;-78
2022/07/20 01:32:56;;;;;;;5.90;1.92;;;22.60;75.10;;;;;;5072582;28;20032;-78
2022/07/20 01:35:22;;;;;;;3.75;1.70;;;22.60;75.10;;;;;;5054368;28;20048;-80
2022/07/20 01:37:47;;;;;;;3.70;2.00;;;22.60;75.30;;;;;;5054375;28;20094;-80
2022/07/20 01:40:13;;;;;;;5.97;2.20;;;22.60;75.20;;;;;;5055153;28;20044;-78
2022/07/20 01:42:38;;;;;;;4.25;2.25;;;22.60;75.30;;;;;;5054418;28;20082;-80
2022/07/20 01:45:05;;;;;;;8.27;2.00;;;22.50;75.30;;;;;;5055089;28;20407;-79
2022/07/20 01:47:31;;;;;;;3.90;2.00;;;22.50;75.70;;;;;;5054094;28;20056;-79
2022/07/20 01:49:56;;;;;;;3.60;1.95;;;22.50;75.70;;;;;;5054231;28;20564;-79
2022/07/20 01:52:22;;;;;;;2.83;2.17;;;22.50;75.80;;;;;;5054075;28;20040;-78
2022/07/20 01:54:47;;;;;;;4.78;2.40;;;22.50;76.10;;;;;;5054240;28;20029;-78
2022/07/20 01:57:13;;;;;;;6.60;2.90;;;22.40;76.10;;;;;;5053589;28;20020;-79
2022/07/20 01:59:38;;;;;;;2.80;1.95;;;22.40;75.90;;;;;;5072641;28;20059;-76
2022/07/20 02:02:04;;;;;;;6.70;2.10;;;22.40;75.60;;;;;;5070027;28;20036;-78
2022/07/20 02:04:29;;;;;;;6.63;1.95;;;22.40;75.50;;;;;;5072385;28;20482;-79
2022/07/20 02:06:55;;;;;;;9.45;1.70;;;22.40;75.70;;;;;;5062201;28;20070;-78
2022/07/20 02:09:20;;;;;;;3.35;2.08;;;22.40;75.90;;;;;;5071194;28;20075;-78
2022/07/20 02:11:46;;;;;;;5.32;2.63;;;22.30;76.50;;;;;;5087544;28;20090;-79
2022/07/20 02:14:11;;;;;;;4.78;2.33;;;22.30;76.80;;;;;;5072878;28;20086;-79
2022/07/20 02:16:37;;;;;;;4.35;1.70;;;22.20;76.70;;;;;;5067579;28;20032;-79
2022/07/20 02:19:02;;;;;;;5.85;1.95;;;22.20;76.80;;;;;;5072337;28;20453;-79
2022/07/20 02:21:30;;;;;;;4.78;2.15;;;22.20;77.00;;;;;;5071783;28;20466;-80
2022/07/20 02:23:57;;;;;;;4.20;2.13;;;22.20;77.20;;;;;;5071934;28;20033;-78
2022/07/20 02:26:23;;;;;;;5.05;2.22;;;22.10;77.30;;;;;;5071122;28;20051;-79
2022/07/20 02:28:48;;;;;;;3.80;1.83;;;22.10;77.70;;;;;;5054099;28;20396;-80
2022/07/20 02:31:14;;;;;;;4.22;2.22;;;22.00;77.80;;;;;;5071988;28;20459;-78
2022/07/20 02:33:40;;;;;;;4.13;2.22;;;22.00;78.00;;;;;;5053337;28;20105;-77
2022/07/20 02:36:06;;;;;;;4.90;1.98;;;22.00;78.30;;;;;;5053355;28;20020;-78
2022/07/20 02:38:32;;;;;;;6.13;2.53;;;21.90;78.80;;;;;;5071553;28;20535;-77
2022/07/20 02:40:57;;;;;;;3.58;1.80;;;21.90;78.90;;;;;;5071844;28;20111;-76
2022/07/20 02:43:23;;;;;;;3.88;2.13;;;21.90;79.10;;;;;;5053618;28;20078;-77
2022/07/20 02:45:48;;;;;;;6.43;2.15;;;21.80;79.10;;;;;;5071386;28;20040;-76
2022/07/20 02:48:14;;;;;;;3.47;2.13;;;21.80;79.30;;;;;;5053599;28;20025;-77
2022/07/20 02:50:41;;;;;;;5.47;2.40;;;21.80;79.40;;;;;;5053329;28;20081;-76
2022/07/20 02:53:09;;;;;;;7.63;2.03;;;21.70;79.90;;;;;;5071597;28;20038;-81
2022/07/20 02:55:35;;;;;;;4.45;2.00;;;21.70;80.40;;;;;;5052662;28;20028;-77
2022/07/20 02:58:00;;;;;;;6.00;2.40;;;21.60;80.90;;;;;;5053207;28;20111;-79
2022/07/20 03:00:26;;;;;;;2.88;2.13;;;21.60;81.00;;;;;;5070113;28;20020;-77
2022/07/20 03:02:52;;;;;;;3.20;2.13;;;21.50;81.30;;;;;;5052513;28;20032;-79
2022/07/20 03:05:18;;;;;;;6.28;2.50;;;21.50;81.50;;;;;;5052556;28;20406;-80
2022/07/20 03:07:43;;;;;;;4.03;2.33;;;21.50;81.80;;;;;;5052833;28;20532;-78
2022/07/20 03:10:10;;;;;;;8.40;3.13;;;21.50;82.20;;;;;;5071390;28;20036;-81
2022/07/20 03:12:35;;;;;;;5.47;2.38;;;21.40;82.70;;;;;;5053035;28;20037;-78
2022/07/20 03:15:02;;;;;;;6.00;2.30;;;21.40;83.20;;;;;;5071870;28;20099;-77
2022/07/20 03:17:28;;;;;;;4.93;2.30;;;21.40;83.40;;;;;;5071293;28;20490;-78
2022/07/20 03:19:53;;;;;;;8.75;2.53;;;21.30;83.80;;;;;;5054245;28;20115;-78
2022/07/20 03:22:18;;;;;;;5.53;2.05;;;21.30;83.80;;;;;;5052774;28;20441;-77
2022/07/20 03:24:44;;;;;;;4.00;2.30;;;21.30;84.00;;;;;;5052687;28;20040;-76
2022/07/20 03:27:10;;;;;;;5.18;2.80;;;21.30;84.40;;;;;;5052198;28;20050;-79
2022/07/20 03:29:35;;;;;;;3.95;1.90;;;21.20;84.90;;;;;;5070810;28;20039;-80
2022/07/20 03:32:01;;;;;;;5.35;2.80;;;21.20;85.70;;;;;;5052241;28;20029;-77
2022/07/20 03:34:27;;;;;;;3.78;2.38;;;21.20;85.60;;;;;;5052386;28;20119;-80
2022/07/20 03:36:52;;;;;;;4.10;2.55;;;21.20;85.80;;;;;;5070121;28;20029;-79
2022/07/20 03:39:18;;;;;;;4.60;2.63;;;21.20;85.80;;;;;;5069905;28;20115;-77
2022/07/20 03:41:43;;;;;;;4.13;2.47;;;21.10;85.70;;;;;;5070471;28;20036;-79
2022/07/20 03:44:09;;;;;;;3.50;2.03;;;21.10;86.10;;;;;;5070508;28;20117;-79
2022/07/20 03:46:34;;;;;;;6.47;2.90;;;21.10;86.10;;;;;;5069700;28;20066;-78
2022/07/20 03:49:00;;;;;;;4.10;2.20;;;21.10;86.10;;;;;;5070832;28;20046;-78
2022/07/20 03:51:25;;;;;;;5.28;2.40;;;21.10;86.20;;;;;;5052046;28;20028;-80
2022/07/20 03:53:51;;;;;;;4.78;2.53;;;21.10;86.30;;;;;;5052491;28;20123;-76
2022/07/20 03:56:16;;;;;;;3.30;2.30;;;21.10;86.50;;;;;;5051542;28;20039;-80
2022/07/20 03:58:42;;;;;;;4.40;2.45;;;21.00;86.70;;;;;;5070733;28;20111;-77
2022/07/20 04:01:08;;;;;;;3.10;2.35;;;21.00;86.80;;;;;;5051896;28;20025;-79
2022/07/20 04:03:33;;;;;;;7.60;2.35;;;21.00;86.70;;;;;;5070083;28;20036;-77
2022/07/20 04:06:00;;;;;;;7.65;2.47;;;21.00;87.10;;;;;;5051581;28;20029;-80
2022/07/20 04:08:25;;;;;;;8.32;2.67;;;21.00;87.10;;;;;;5069693;28;20032;-80
2022/07/20 04:10:51;;;;;;;4.80;2.33;;;21.00;87.10;;;;;;5051770;28;20116;-78
2022/07/20 04:13:16;;;;;;;2.53;1.77;;;21.00;87.10;;;;;;5069784;28;20127;-78
2022/07/20 04:15:42;;;;;;;3.92;2.63;;;21.00;87.30;;;;;;5069453;28;20036;-79
2022/07/20 04:18:07;;;;;;;4.30;2.40;;;21.00;87.40;;;;;;5070174;28;20040;-78
2022/07/20 04:20:33;;;;;;;6.90;2.53;;;21.10;87.50;;;;;;5070046;28;20033;-77
2022/07/20 04:22:58;;;;;;;4.93;2.80;;;21.10;87.40;;;;;;5069311;28;20040;-79
2022/07/20 04:25:24;;;;;;;2.72;2.05;;;21.10;87.50;;;;;;5069625;28;20045;-75
2022/07/20 04:27:50;;;;;;;3.78;2.78;;;21.10;87.70;;;;;;5051957;28;20395;-77
2022/07/20 04:30:16;;;;;;;4.50;2.33;;;21.20;87.90;;;;;;5069882;28;20036;-78
2022/07/20 04:32:42;;;;;;;6.97;2.15;;;21.20;87.70;;;;;;5069087;28;20036;-77
2022/07/20 04:35:08;;;;;;;4.78;2.90;;;21.20;87.70;;;;;;5051702;28;20086;-77
2022/07/20 04:37:34;;;;;;;4.82;2.40;;;21.20;87.70;;;;;;5051040;28;20482;-79
2022/07/20 04:40:01;;;;;;;4.35;2.42;;;21.30;87.80;;;;;;5069864;28;20483;-79
2022/07/20 04:42:26;;;;;;;6.00;2.50;;;21.30;87.70;;;;;;5051231;28;20394;-81
2022/07/20 04:44:52;;;;;;;4.22;2.38;;;21.30;87.40;;;;;;5052103;28;20041;-78
2022/07/20 04:47:17;;;;;;;4.40;2.72;;;21.40;87.70;;;;;;5050625;28;20029;-80
2022/07/20 04:49:42;;;;;;;5.03;2.45;;;21.40;87.60;;;;;;5051798;28;20036;-77
2022/07/20 04:52:08;;;;;;;5.10;2.97;;;21.50;87.40;;;;;;5069449;28;20040;-78
2022/07/20 04:54:33;;;;;;;4.18;2.63;;;21.50;87.30;;;;;;5069773;28;20480;-77
2022/07/20 04:57:01;;;;;;;7.55;3.50;;;21.60;87.30;;;;;;5069087;28;20025;-80
2022/07/20 04:59:27;;;;;;;5.03;2.60;;;21.50;86.80;;;;;;5069563;28;20058;-79
2022/07/20 05:01:52;;;;;;;5.95;2.88;;;21.60;86.30;;;;;;5050983;28;20465;-79
2022/07/20 05:04:18;;;;;;;4.28;2.50;;;21.70;86.30;;;;;;5069827;28;20054;-80
2022/07/20 05:06:44;;;;;;;3.83;2.20;;;21.70;85.50;;;;;;5051178;28;20029;-77
2022/07/20 05:09:10;;;;;;;4.13;2.67;;;21.80;85.80;;;;;;5069182;28;20170;-77
2022/07/20 05:11:37;;;;;;;5.47;2.92;;;21.90;85.20;;;;;;5051149;28;20115;-80
2022/07/20 05:14:02;;;;;;;6.68;2.97;;;21.90;85.00;;;;;;5051850;28;20054;-78
2022/07/20 05:16:28;;;;;;;4.93;2.65;;;22.00;85.00;;;;;;5069008;28;20036;-80
2022/07/20 05:18:53;;;;;;;4.03;2.90;;;22.10;84.70;;;;;;5051636;28;20028;-78
2022/07/20 05:21:19;;;;;;;6.15;2.78;;;22.10;84.30;;;;;;5069552;28;20082;-77
2022/07/20 05:23:44;;;;;;;9.82;4.32;;;22.20;84.30;;;;;;5070358;28;20048;-77
2022/07/20 05:26:10;;;;;;;8.93;4.32;;;22.30;83.80;;;;;;5054590;28;20133;-78
2022/07/20 05:28:36;;;;;;;6.28;3.70;;;22.40;83.40;;;;;;5073348;28;20028;-79
2022/07/20 05:31:03;;;;;;;7.82;3.40;;;22.40;83.00;;;;;;5073202;28;20043;-77
2022/07/20 05:33:28;;;;;;;3.88;2.90;;;22.50;83.10;;;;;;5072870;28;20395;-77
2022/07/20 05:35:54;;;;;;;7.95;3.63;;;22.60;82.40;;;;;;5072371;28;20033;-77
2022/07/20 05:38:20;;;;;;;4.60;3.20;;;22.70;81.80;;;;;;5054631;28;20031;-80
2022/07/20 05:40:46;;;;;;;2.50;1.98;;;22.80;82.00;;;;;;5072643;28;20171;-78
2022/07/20 05:43:12;;;;;;;5.45;2.63;;;22.90;80.90;;;;;;5072951;28;20130;-79
2022/07/20 05:45:37;;;;;;;6.88;2.28;;;23.00;80.60;;;;;;5072072;28;20131;-80
2022/07/20 05:48:05;;;;;;;2.92;2.08;;;23.10;80.10;;;;;;5073072;28;20033;-79
2022/07/20 05:50:31;;;;;;;4.75;2.40;;;23.20;80.20;;;;;;5054573;28;20481;-81
2022/07/20 05:52:56;;;;;;;5.40;2.20;;;23.30;79.40;;;;;;5054083;28;20036;-77
2022/07/20 05:55:22;;;;;;;5.07;2.50;;;23.40;79.20;;;;;;5054271;28;20035;-78
2022/07/20 05:57:47;;;;;;;3.83;2.33;;;23.50;79.20;;;;;;5054213;28;20025;-78
2022/07/20 06:00:13;;;;;;;4.90;2.50;;;23.60;79.10;;;;;;5072704;28;20490;-78
2022/07/20 06:02:39;;;;;;;3.67;2.33;;;23.70;79.10;;;;;;5071913;28;20033;-77
2022/07/20 06:05:05;;;;;;;10.73;2.05;;;23.80;78.60;;;;;;5072436;28;20103;-78
2022/07/20 06:07:30;;;;;;;6.10;2.10;;;23.90;77.90;;;;;;5071360;28;20029;-79
2022/07/20 06:09:55;;;;;;;3.60;2.10;;;24.00;77.30;;;;;;5072432;28;20028;-78
2022/07/20 06:12:21;;;;;;;7.78;3.63;;;24.10;77.50;;;;;;5054219;28;20033;-79
2022/07/20 06:14:47;;;;;;;6.20;2.67;;;24.30;77.90;;;;;;5054392;28;20028;-80
2022/07/20 06:17:12;;;;;;;5.68;2.58;;;24.30;77.00;;;;;;5054255;28;20029;-78
2022/07/20 06:19:38;;;;;;;13.55;2.58;;;24.40;77.40;;;;;;5072318;28;20083;-78
2022/07/20 06:22:03;;;;;;;9.00;2.03;;;24.50;77.00;;;;;;5072811;28;20447;-79
2022/07/20 06:24:29;;;;;;;8.65;2.15;;;24.50;76.90;;;;;;5074775;28;20049;-78
2022/07/20 06:26:54;;;;;;;7.30;2.60;;;24.60;76.20;;;;;;5072096;28;20040;-82
2022/07/20 06:29:20;;;;;;;5.95;2.30;;;24.70;75.60;;;;;;5054149;28;20036;-76
2022/07/20 06:31:46;;;;;;;5.32;2.30;;;24.90;76.50;;;;;;5071562;28;20590;-79
2022/07/20 06:34:11;;;;;;;4.70;2.80;;;24.90;76.40;;;;;;5053746;28;20150;-80
2022/07/20 06:36:37;;;;;;;6.38;3.60;;;25.10;76.10;;;;;;5071178;28;20494;-79
2022/07/20 06:39:02;;;;;;;7.15;2.78;;;25.20;75.60;;;;;;5071462;28;20020;-77
2022/07/20 06:41:28;;;;;;;10.98;2.60;;;25.30;74.50;;;;;;5053242;28;20106;-82
2022/07/20 06:43:53;;;;;;;5.50;2.22;;;25.40;73.90;;;;;;5071608;28;20116;-78
2022/07/20 06:46:19;;;;;;;3.33;2.30;;;25.60;74.00;;;;;;5071209;28;20036;-79
2022/07/20 06:48:44;;;;;;;6.40;2.28;;;25.70;74.40;;;;;;5053551;28;20533;-80
2022/07/20 06:51:10;;;;;;;5.55;2.10;;;25.80;73.30;;;;;;5053561;28;20031;-78
2022/07/20 06:53:36;;;;;;;3.10;2.38;;;25.90;73.20;;;;;;5071408;28;20474;-78
2022/07/20 06:56:01;;;;;;;8.05;1.90;;;26.10;71.90;;;;;;5052700;28;20025;-77
2022/07/20 06:58:27;;;;;;;5.65;1.98;;;26.20;72.30;;;;;;5071165;28;20036;-78
2022/07/20 07:00:52;;;;;;;6.70;2.55;;;26.30;72.50;;;;;;5071223;28;20020;-79
2022/07/20 07:03:18;;;;;;;3.53;1.90;;;26.50;72.00;;;;;;5053396;28;20522;-79
2022/07/20 07:05:43;;;;;;;8.85;2.35;;;26.70;71.30;;;;;;5070419;28;20094;-80
2022/07/20 07:08:09;;;;;;;5.53;1.58;;;26.80;69.80;;;;;;5053167;28;20548;-80
2022/07/20 07:10:34;;;;;;;11.60;2.38;;;27.00;70.40;;;;;;5070571;28;20029;-78
2022/07/20 07:13:00;;;;;;;6.47;1.90;;;27.20;69.60;;;;;;5070614;28;20127;-79
2022/07/20 07:15:25;;;;;;;3.03;1.55;;;27.30;69.70;;;;;;5052375;28;20111;-79
2022/07/20 07:17:51;;;;;;;5.20;1.92;;;27.50;69.10;;;;;;5070998;28;20033;-78
2022/07/20 07:20:16;;;;;;;3.88;1.60;;;27.70;68.20;;;;;;5053212;28;20059;-79
2022/07/20 07:22:42;;;;;;;10.82;2.20;;;27.90;67.00;;;;;;5069997;28;20063;-78
2022/07/20 07:25:08;;;;;;;3.10;1.73;;;28.10;68.00;;;;;;5052594;28;20481;-79
2022/07/20 07:27:33;;;;;;;6.75;1.90;;;28.20;65.10;;;;;;5052196;28;20032;-81
2022/07/20 07:29:59;;;;;;;8.70;2.10;;;28.40;65.20;;;;;;5071275;28;20512;-78
2022/07/20 07:32:24;;;;;;;5.25;2.00;;;28.50;66.10;;;;;;5052343;28;20028;-80
2022/07/20 07:34:50;;;;;;;3.92;1.70;;;28.70;66.60;;;;;;5070730;28;20036;-80
2022/07/20 07:37:15;;;;;;;7.63;1.98;;;28.90;64.60;;;;;;5070357;28;20081;-78
2022/07/20 07:39:41;;;;;;;9.80;2.10;;;29.10;64.30;;;;;;5070128;28;20063;-78
2022/07/20 07:42:07;;;;;;;7.38;1.92;;;29.30;62.90;;;;;;5071092;28;20032;-77
2022/07/20 07:44:32;;;;;;;3.92;1.85;;;29.50;63.90;;;;;;5071169;28;20109;-80
2022/07/20 07:46:58;;;;;;;3.90;1.85;;;29.60;62.80;;;;;;5069748;28;20040;-78
2022/07/20 07:49:23;;;;;;;5.93;1.88;;;29.80;63.30;;;;;;5052447;28;20112;-78
2022/07/20 07:51:49;;;;;;;5.13;1.63;;;30.00;63.40;;;;;;5070918;28;20028;-79
2022/07/20 07:54:14;;;;;;;5.90;2.33;;;30.20;61.70;;;;;;5070783;28;20044;-78
2022/07/20 07:56:41;;;;;;;9.55;2.28;;;30.30;60.80;;;;;;5069597;28;20055;-79
2022/07/20 07:59:07;;;;;;;5.05;2.60;;;30.50;61.50;;;;;;5052664;28;20060;-77
2022/07/20 08:01:34;;;;;;;8.15;1.83;;;30.70;61.00;;;;;;5070250;28;20036;-77
2022/07/20 08:04:00;;;;;;;4.82;1.65;;;30.80;61.00;;;;;;5071314;28;20025;-78
2022/07/20 08:06:27;;;;;;;4.25;1.58;;;31.00;60.20;;;;;;5071204;28;20111;-78
2022/07/20 08:08:52;;;;;;;5.47;1.73;;;31.10;61.10;;;;;;5071781;28;20039;-79
2022/07/20 08:11:18;;;;;;;3.83;1.50;;;31.30;61.60;;;;;;5070874;28;20040;-79
2022/07/20 08:13:44;;;;;;;2.28;1.77;;;31.50;59.70;;;;;;5052494;28;20074;-80
2022/07/20 08:16:09;;;;;;;5.60;1.88;;;31.60;56.90;;;;;;5070403;28;20025;-79
2022/07/20 08:18:34;;;;;;;4.70;1.75;;;31.80;58.60;;;;;;5052865;28;20451;-79
2022/07/20 08:21:00;;;;;;;4.50;1.50;;;31.90;56.80;;;;;;5070471;28;20024;-78
2022/07/20 08:23:26;;;;;;;3.42;1.60;;;32.10;57.00;;;;;;5071227;28;20039;-80
2022/07/20 08:25:51;;;;;;;5.50;1.90;;;32.30;57.00;;;;;;5070080;28;20153;-78
2022/07/20 08:28:21;;;;;;;3.22;1.92;;;32.40;57.30;;;;;;5071001;28;20240;-81
2022/07/20 08:30:50;;;;;;;6.28;1.60;;;32.60;56.40;;;;;;5070317;28;20320;-78
2022/07/20 08:33:15;;;;;;;4.95;1.90;;;32.80;57.90;;;;;;5052548;28;20033;-79
2022/07/20 08:35:41;;;;;;;4.43;1.55;;;32.90;56.30;;;;;;5051638;28;20039;-80
2022/07/20 08:38:08;;;;;;;11.23;2.00;;;33.00;56.20;;;;;;5070128;28;20036;-79
2022/07/20 08:40:34;;;;;;;7.30;1.67;;;33.20;55.40;;;;;;5069815;28;20044;-80
2022/07/20 08:43:01;;;;;;;6.40;1.70;;;33.30;54.20;;;;;;5051916;28;20036;-80
2022/07/20 08:45:28;;;;;;;5.45;1.42;;;33.40;53.60;;;;;;5069080;28;20478;-78
2022/07/20 08:47:56;;;;;;;8.15;1.55;;;33.50;53.70;;;;;;5069693;28;20155;-80
2022/07/20 08:50:24;;;;;;;4.53;1.65;;;33.60;55.20;;;;;;5051870;28;20086;-79
2022/07/20 08:52:50;;;;;;;2.92;1.50;;;33.70;52.40;;;;;;5069457;28;20025;-78
2022/07/20 08:55:15;;;;;;;4.85;1.20;;;33.90;51.70;;;;;;5051675;28;20056;-78
2022/07/20 08:57:42;;;;;;;2.70;1.70;;;34.10;52.20;;;;;;5069366;28;20110;-79
2022/07/20 09:00:08;;;;;;;5.57;1.98;;;34.30;52.50;;;;;;5055375;28;20487;-79
2022/07/20 09:03:01;;;;;;;2.47;1.52;;;34.50;50.90;;;;;;5054819;28;20036;-78
2022/07/20 09:05:29;;;;;;;3.92;1.58;;;34.60;50.40;;;;;;5069446;28;20486;-79
2022/07/20 09:07:56;;;;;;;6.53;1.40;;;34.80;51.70;;;;;;5055816;28;20025;-81
2022/07/20 09:10:34;;;;;;;3.25;1.35;;;34.90;48.00;;;;;;5054824;28;20036;-80
2022/07/20 09:13:01;;;;;;;3.83;1.60;;;35.00;50.50;;;;;;5055570;28;20029;-79
2022/07/20 09:15:33;;;;;;;4.97;1.60;;;35.10;49.50;;;;;;5072734;28;20486;-79
2022/07/20 09:18:28;;;;;;;4.57;1.33;;;35.20;48.40;;;;;;5073898;28;20028;-78
2022/07/20 09:20:58;;;;;;;2.88;1.58;;;35.30;48.90;;;;;;5073117;28;20064;-79
2022/07/20 09:23:27;;;;;;;2.92;1.73;;;35.40;48.30;;;;;;5055280;28;20025;-79
2022/07/20 09:26:02;;;;;;;4.47;1.48;;;35.40;48.40;;;;;;5072480;28;20044;-80
2022/07/20 09:28:40;;;;;;;11.70;1.40;;;35.40;47.50;;;;;;5073655;28;20025;-79
2022/07/20 09:31:21;;;;;;;2.65;1.40;;;35.50;48.20;;;;;;5089253;28;20024;-78
2022/07/20 09:33:57;;;;;;;3.40;1.23;;;35.70;50.90;;;;;;5073621;28;20032;-79
2022/07/20 09:36:26;;;;;;;4.82;1.63;;;35.90;49.20;;;;;;5072320;28;20028;-80
2022/07/20 09:38:51;;;;;;;9.23;1.25;;;36.00;48.00;;;;;;5054851;28;20028;-82
2022/07/20 09:41:28;;;;;;;6.40;1.60;;;36.20;46.60;;;;;;5054518;28;20474;-77
2022/07/20 09:43:55;;;;;;;4.90;2.35;;;36.30;46.20;;;;;;5072767;28;20075;-79
2022/07/20 09:46:24;;;;;;;4.88;1.35;;;36.50;47.20;;;;;;5072155;28;20029;-79
2022/07/20 09:48:55;;;;;;;4.22;1.48;;;36.60;47.90;;;;;;5072461;28;20055;-78
2022/07/20 09:51:22;;;;;;;3.50;1.20;;;36.70;46.80;;;;;;5084764;28;20446;-79
2022/07/20 09:53:49;;;;;;;5.45;1.73;;;36.80;49.20;;;;;;5072499;28;20093;-78
2022/07/20 09:56:16;;;;;;;3.05;1.80;;;36.90;47.00;;;;;;5072188;28;20020;-79
2022/07/20 09:58:45;;;;;;;5.38;1.80;;;37.00;46.10;;;;;;5072800;28;20414;-80
2022/07/20 10:01:12;;;;;;;3.13;1.30;;;37.10;47.00;;;;;;5072130;28;20034;-78
2022/07/20 10:03:38;;;;;;;6.30;1.60;;;37.10;44.30;;;;;;5072159;28;20037;-79
2022/07/20 10:06:04;;;;;;;11.85;1.33;;;37.30;43.90;;;;;;5071837;28;20036;-78
2022/07/20 10:08:30;;;;;;;2.97;1.65;;;37.30;45.30;;;;;;5072361;28;20029;-79
2022/07/20 10:10:56;;;;;;;3.03;1.77;;;37.40;45.00;;;;;;5071588;28;20021;-78
2022/07/20 10:13:22;;;;;;;5.88;1.88;;;37.40;46.10;;;;;;5072428;28;20181;-79
2022/07/20 10:16:01;;;;;;;6.28;1.75;;;37.50;45.00;;;;;;5071625;28;20029;-79
2022/07/20 10:18:27;;;;;;;6.43;2.00;;;37.50;43.40;;;;;;5071888;28;20051;-82
2022/07/20 10:20:53;;;;;;;5.68;2.08;;;37.60;44.50;;;;;;5071776;28;20467;-82
2022/07/20 10:23:29;;;;;;;4.03;1.38;;;37.60;43.40;;;;;;5071917;28;20047;-78
2022/07/20 10:25:55;;;;;;;3.95;1.42;;;37.60;43.50;;;;;;5053561;28;20031;-80
2022/07/20 10:28:33;;;;;;;3.72;1.30;;;37.70;42.50;;;;;;5053773;28;20032;-78
2022/07/20 10:31:06;;;;;;;4.32;1.70;;;37.60;43.60;;;;;;5071998;28;20430;-78
2022/07/20 10:33:34;;;;;;;5.28;1.73;;;37.60;43.30;;;;;;5071514;28;20032;-81
2022/07/20 10:38:55;;;;;;;10.20;1.67;;;37.90;44.80;;;;;;5071809;28;20040;-80
2022/07/20 10:41:32;;;;;;;7.30;1.67;;;38.00;45.30;;;;;;5053563;28;20036;-78
2022/07/20 10:44:19;;;;;;;7.38;2.13;;;38.10;45.30;;;;;;5053859;28;20040;-79
2022/07/20 10:46:45;;;;;;;8.50;1.77;;;38.20;41.70;;;;;;5070979;28;20028;-81
2022/07/20 10:49:11;;;;;;;3.35;1.38;;;38.20;42.50;;;;;;5053180;28;20036;-78
2022/07/20 10:51:37;;;;;;;8.23;2.03;;;38.30;43.30;;;;;;5053018;28;20127;-81
2022/07/20 10:54:48;;;;;;;6.80;1.60;;;38.40;42.60;;;;;;5053740;28;20110;-79
2022/07/20 10:57:13;;;;;;;5.00;1.45;;;38.40;42.20;;;;;;5066865;28;20568;-79
2022/07/20 10:59:39;;;;;;;4.40;1.70;;;38.60;42.10;;;;;;5053241;28;20115;-82
2022/07/20 11:02:04;;;;;;;5.07;1.63;;;38.70;41.80;;;;;;5070603;28;20103;-78
2022/07/20 11:04:41;;;;;;;7.75;1.98;;;38.80;42.80;;;;;;5071127;28;20047;-79
2022/07/20 11:07:06;;;;;;;8.13;1.65;;;39.00;41.80;;;;;;5070363;28;20024;-78
2022/07/20 11:09:32;;;;;;;4.07;1.48;;;39.00;41.20;;;;;;5070839;28;20098;-81
2022/07/20 11:11:57;;;;;;;3.35;1.33;;;39.10;41.80;;;;;;5070963;28;20056;-82
2022/07/20 11:14:23;;;;;;;4.72;1.58;;;39.10;41.40;;;;;;5071153;28;20036;-79
2022/07/20 11:16:54;;;;;;;6.22;1.70;;;39.20;44.20;;;;;;5070414;28;20107;-78
2022/07/20 11:19:20;;;;;;;4.10;1.70;;;39.20;42.80;;;;;;5071061;28;20490;-79
2022/07/20 11:21:46;;;;;;;6.45;1.25;;;39.30;40.50;;;;;;5051882;28;20063;-79
2022/07/20 11:24:23;;;;;;;8.90;2.08;;;39.30;40.90;;;;;;5070726;28;20032;-78
2022/07/20 11:26:49;;;;;;;6.95;1.20;;;39.30;42.70;;;;;;5070215;28;20348;-81
2022/07/20 11:29:16;;;;;;;4.45;1.52;;;39.30;41.20;;;;;;5052927;28;20028;-79
2022/07/20 11:31:42;;;;;;;3.80;1.48;;;39.40;40.80;;;;;;5070298;28;20139;-77
2022/07/20 11:34:11;;;;;;;9.95;1.50;;;39.60;42.70;;;;;;5070651;28;20097;-82
2022/07/20 11:36:37;;;;;;;9.65;2.17;;;39.70;39.70;;;;;;5069816;28;20059;-79
2022/07/20 11:39:06;;;;;;;3.45;1.48;;;39.60;40.10;;;;;;5070605;28;20060;-83
2022/07/20 11:41:33;;;;;;;6.45;1.90;;;39.70;39.50;;;;;;5070218;28;20033;-77
2022/07/20 11:44:00;;;;;;;14.75;2.10;;;39.70;39.00;;;;;;5070466;28;20048;-79
2022/07/20 11:46:27;;;;;;;4.95;1.75;;;39.70;39.90;;;;;;5051832;28;20489;-81
2022/07/20 11:49:01;;;;;;;6.40;2.35;;;39.60;40.70;;;;;;5070708;28;20036;-79
2022/07/20 11:51:28;;;;;;;10.35;2.08;;;39.60;38.00;;;;;;5070469;28;20900;-79
2022/07/20 11:53:55;;;;;;;10.00;2.30;;;39.60;40.60;;;;;;5070394;28;20043;-78
2022/07/20 11:56:24;;;;;;;5.35;1.75;;;39.50;39.20;;;;;;5069785;28;20036;-79
2022/07/20 11:58:51;;;;;;;3.33;1.83;;;39.50;40.00;;;;;;5070310;28;20025;-79
2022/07/20 12:01:23;;;;;;;6.20;1.73;;;39.40;39.70;;;;;;5070025;28;20025;-81
2022/07/20 12:03:53;;;;;;;5.70;1.83;;;39.50;40.50;;;;;;5069971;28;20049;-79
2022/07/20 12:06:19;;;;;;;5.95;2.13;;;39.50;38.60;;;;;;5051719;28;20033;-79
2022/07/20 12:09:00;;;;;;;8.65;2.35;;;39.40;40.60;;;;;;5069689;28;20120;-81
2022/07/20 12:11:25;;;;;;;6.10;2.00;;;39.30;38.50;;;;;;5070277;28;20028;-80
2022/07/20 12:13:51;;;;;;;4.50;2.08;;;39.20;39.80;;;;;;5052291;28;20035;-79
2022/07/20 12:16:17;;;;;;;7.75;2.10;;;39.20;39.60;;;;;;5069825;28;20119;-79
2022/07/20 12:18:45;;;;;;;5.13;1.73;;;39.20;41.70;;;;;;5052001;28;20482;-79
2022/07/20 12:21:19;;;;;;;3.20;1.83;;;39.30;40.50;;;;;;5051966;28;20470;-83
2022/07/20 12:23:48;;;;;;;4.78;1.80;;;39.40;40.50;;;;;;5069592;28;20037;-83
2022/07/20 12:26:20;;;;;;;4.88;1.67;;;39.60;40.20;;;;;;5051511;28;20115;-79
2022/07/20 12:28:46;;;;;;;7.82;1.63;;;39.70;40.00;;;;;;5070167;28;20070;-79
2022/07/20 12:31:13;;;;;;;4.43;1.65;;;39.80;39.50;;;;;;5070084;28;20032;-82
2022/07/20 12:33:58;;;;;;;5.60;2.00;;;40.00;39.70;;;;;;5071389;28;20036;-80
2022/07/20 12:36:34;;;;;;;4.22;1.48;;;40.00;39.50;;;;;;5071214;28;20052;-81
2022/07/20 12:39:01;;;;;;;5.18;1.60;;;40.20;38.90;;;;;;5070758;28;20133;-79
2022/07/20 12:41:26;;;;;;;2.78;1.60;;;40.20;38.40;;;;;;5052289;28;20398;-80
2022/07/20 12:43:52;;;;;;;3.00;1.60;;;40.30;37.90;;;;;;5070005;28;20036;-79
2022/07/20 12:46:17;;;;;;;4.25;1.55;;;40.40;39.30;;;;;;5051349;28;20072;-82
2022/07/20 12:48:46;;;;;;;2.15;1.20;;;40.50;39.40;;;;;;5069725;28;20037;-79
2022/07/20 12:51:12;;;;;;;5.38;1.30;;;40.60;38.00;;;;;;5051383;28;20074;-79